sensor_id;sensor_type;location;lat;lon;timestamp;P1;durP1;ratioP1;P2;durP2;ratioP2
1390;SDS011;690;51.454;7.194;2023-02-27T00:00:16;6.50;;;4.95;;
1390;SDS011;690;51.454;7.194;2023-02-27T00:02:46;8.07;;;5.40;;
1390;SDS011;690;51.454;7.194;2023-02-27T00:05:14;6.00;;;5.05;;
1390;SDS011;690;51.454;7.194;2023-02-27T00:07:41;7.75;;;5.50;;
1390;SDS011;690;51.454;7.194;2023-02-27T00:10:09;5.63;;;5.00;;
1390;SDS011;690;51.454;7.194;2023-02-27T00:12:43;6.53;;;5.30;;
1390;SDS011;690;51.454;7.194;2023-02-27T00:15:11;5.53;;;4.50;;
1390;SDS011;690;51.454;7.194;2023-02-27T00:17:41;8.07;;;4.78;;
1390;SDS011;690;51.454;7.194;2023-02-27T00:20:09;7.57;;;5.10;;
1390;SDS011;690;51.454;7.194;2023-02-27T00:22:37;7.65;;;5.47;;
1390;SDS011;690;51.454;7.194;2023-02-27T00:25:05;8.35;;;5.47;;
1390;SDS011;690;51.454;7.194;2023-02-27T00:27:32;7.50;;;5.85;;
1390;SDS011;690;51.454;7.194;2023-02-27T00:30:01;9.60;;;5.70;;
1390;SDS011;690;51.454;7.194;2023-02-27T00:32:28;9.55;;;6.40;;
1390;SDS011;690;51.454;7.194;2023-02-27T00:34:56;8.18;;;5.00;;
1390;SDS011;690;51.454;7.194;2023-02-27T00:37:23;7.65;;;5.28;;
1390;SDS011;690;51.454;7.194;2023-02-27T00:39:50;9.10;;;6.05;;
1390;SDS011;690;51.454;7.194;2023-02-27T00:42:17;10.32;;;4.85;;
1390;SDS011;690;51.454;7.194;2023-02-27T00:44:44;9.07;;;4.88;;
1390;SDS011;690;51.454;7.194;2023-02-27T00:47:11;6.80;;;4.50;;
1390;SDS011;690;51.454;7.194;2023-02-27T00:49:37;8.88;;;4.32;;
1390;SDS011;690;51.454;7.194;2023-02-27T00:52:06;6.40;;;4.30;;
1390;SDS011;690;51.454;7.194;2023-02-27T00:54:33;7.47;;;4.53;;
1390;SDS011;690;51.454;7.194;2023-02-27T00:57:00;7.93;;;4.43;;
1390;SDS011;690;51.454;7.194;2023-02-27T00:59:27;5.55;;;4.25;;
1390;SDS011;690;51.454;7.194;2023-02-27T01:01:54;5.90;;;4.25;;
1390;SDS011;690;51.454;7.194;2023-02-27T01:04:21;8.90;;;5.20;;
1390;SDS011;690;51.454;7.194;2023-02-27T01:06:48;5.78;;;4.28;;
1390;SDS011;690;51.454;7.194;2023-02-27T01:09:16;5.70;;;3.90;;
1390;SDS011;690;51.454;7.194;2023-02-27T01:11:43;12.45;;;4.20;;
1390;SDS011;690;51.454;7.194;2023-02-27T01:14:10;6.97;;;4.90;;
1390;SDS011;690;51.454;7.194;2023-02-27T01:16:37;6.63;;;4.60;;
1390;SDS011;690;51.454;7.194;2023-02-27T01:19:04;7.10;;;4.50;;
1390;SDS011;690;51.454;7.194;2023-02-27T01:21:31;8.55;;;4.15;;
1390;SDS011;690;51.454;7.194;2023-02-27T01:23:58;11.15;;;4.30;;
1390;SDS011;690;51.454;7.194;2023-02-27T01:26:26;4.78;;;3.90;;
1390;SDS011;690;51.454;7.194;2023-02-27T01:28:53;6.97;;;4.35;;
1390;SDS011;690;51.454;7.194;2023-02-27T01:31:19;6.55;;;4.47;;
1390;SDS011;690;51.454;7.194;2023-02-27T01:33:46;6.60;;;4.47;;
1390;SDS011;690;51.454;7.194;2023-02-27T01:36:14;6.20;;;4.20;;
1390;SDS011;690;51.454;7.194;2023-02-27T01:38:40;7.70;;;4.43;;
1390;SDS011;690;51.454;7.194;2023-02-27T01:41:07;8.57;;;4.85;;
1390;SDS011;690;51.454;7.194;2023-02-27T01:46:21;7.38;;;4.15;;
1390;SDS011;690;51.454;7.194;2023-02-27T01:48:48;6.25;;;4.18;;
1390;SDS011;690;51.454;7.194;2023-02-27T01:51:19;7.97;;;4.47;;
1390;SDS011;690;51.454;7.194;2023-02-27T01:53:48;7.55;;;4.57;;
1390;SDS011;690;51.454;7.194;2023-02-27T01:56:18;8.25;;;4.10;;
1390;SDS011;690;51.454;7.194;2023-02-27T01:58:46;10.00;;;5.05;;
1390;SDS011;690;51.454;7.194;2023-02-27T02:01:16;10.40;;;5.10;;
1390;SDS011;690;51.454;7.194;2023-02-27T02:03:45;7.30;;;4.45;;
1390;SDS011;690;51.454;7.194;2023-02-27T02:06:18;9.65;;;4.43;;
1390;SDS011;690;51.454;7.194;2023-02-27T02:08:46;5.80;;;4.32;;
1390;SDS011;690;51.454;7.194;2023-02-27T02:11:14;5.68;;;4.22;;
1390;SDS011;690;51.454;7.194;2023-02-27T02:13:43;10.18;;;4.47;;
1390;SDS011;690;51.454;7.194;2023-02-27T02:16:18;5.65;;;3.75;;
1390;SDS011;690;51.454;7.194;2023-02-27T02:18:54;5.53;;;3.85;;
1390;SDS011;690;51.454;7.194;2023-02-27T02:27:35;7.30;;;3.90;;
1390;SDS011;690;51.454;7.194;2023-02-27T02:39:13;4.57;;;3.58;;
1390;SDS011;690;51.454;7.194;2023-02-27T02:41:54;5.63;;;3.60;;
1390;SDS011;690;51.454;7.194;2023-02-27T02:44:27;6.15;;;3.63;;
1390;SDS011;690;51.454;7.194;2023-02-27T02:47:02;5.55;;;3.60;;
1390;SDS011;690;51.454;7.194;2023-02-27T02:49:35;5.57;;;4.18;;
1390;SDS011;690;51.454;7.194;2023-02-27T02:52:09;5.13;;;3.65;;
1390;SDS011;690;51.454;7.194;2023-02-27T02:54:47;6.18;;;3.85;;
1390;SDS011;690;51.454;7.194;2023-02-27T02:57:22;7.93;;;3.63;;
1390;SDS011;690;51.454;7.194;2023-02-27T02:59:54;6.32;;;4.15;;
1390;SDS011;690;51.454;7.194;2023-02-27T03:02:30;5.60;;;3.55;;
1390;SDS011;690;51.454;7.194;2023-02-27T03:05:02;9.73;;;5.38;;
1390;SDS011;690;51.454;7.194;2023-02-27T03:07:34;6.05;;;4.03;;
1390;SDS011;690;51.454;7.194;2023-02-27T03:10:07;5.70;;;3.38;;
1390;SDS011;690;51.454;7.194;2023-02-27T03:12:38;4.68;;;3.35;;
1390;SDS011;690;51.454;7.194;2023-02-27T03:15:09;7.10;;;3.90;;
1390;SDS011;690;51.454;7.194;2023-02-27T03:17:41;6.75;;;4.38;;
1390;SDS011;690;51.454;7.194;2023-02-27T03:20:14;6.10;;;3.85;;
1390;SDS011;690;51.454;7.194;2023-02-27T03:22:45;6.63;;;3.80;;
1390;SDS011;690;51.454;7.194;2023-02-27T03:25:17;5.30;;;3.70;;
1390;SDS011;690;51.454;7.194;2023-02-27T03:27:46;7.63;;;4.72;;
1390;SDS011;690;51.454;7.194;2023-02-27T03:30:18;4.95;;;3.75;;
1390;SDS011;690;51.454;7.194;2023-02-27T03:32:52;6.68;;;4.50;;
1390;SDS011;690;51.454;7.194;2023-02-27T03:35:25;7.03;;;4.80;;
1390;SDS011;690;51.454;7.194;2023-02-27T03:37:58;6.13;;;3.65;;
1390;SDS011;690;51.454;7.194;2023-02-27T03:40:30;7.35;;;4.07;;
1390;SDS011;690;51.454;7.194;2023-02-27T03:43:01;11.18;;;4.07;;
1390;SDS011;690;51.454;7.194;2023-02-27T03:45:49;6.22;;;3.88;;
1390;SDS011;690;51.454;7.194;2023-02-27T03:48:22;3.88;;;3.17;;
1390;SDS011;690;51.454;7.194;2023-02-27T03:50:49;7.15;;;3.70;;
1390;SDS011;690;51.454;7.194;2023-02-27T03:53:20;5.30;;;4.00;;
1390;SDS011;690;51.454;7.194;2023-02-27T03:55:54;7.07;;;4.40;;
1390;SDS011;690;51.454;7.194;2023-02-27T03:58:23;4.40;;;4.00;;
1390;SDS011;690;51.454;7.194;2023-02-27T04:00:50;8.65;;;4.15;;
1390;SDS011;690;51.454;7.194;2023-02-27T04:03:17;6.82;;;3.72;;
1390;SDS011;690;51.454;7.194;2023-02-27T04:05:45;4.28;;;3.50;;
1390;SDS011;690;51.454;7.194;2023-02-27T04:08:25;6.35;;;3.95;;
1390;SDS011;690;51.454;7.194;2023-02-27T04:11:18;5.82;;;4.03;;
1390;SDS011;690;51.454;7.194;2023-02-27T04:14:18;8.50;;;4.60;;
1390;SDS011;690;51.454;7.194;2023-02-27T04:17:07;7.50;;;4.13;;
1390;SDS011;690;51.454;7.194;2023-02-27T04:19:57;6.30;;;4.78;;
1390;SDS011;690;51.454;7.194;2023-02-27T04:22:40;10.73;;;5.50;;
1390;SDS011;690;51.454;7.194;2023-02-27T04:25:14;8.02;;;4.63;;
1390;SDS011;690;51.454;7.194;2023-02-27T04:27:51;5.90;;;4.28;;
1390;SDS011;690;51.454;7.194;2023-02-27T04:30:24;7.15;;;4.32;;
1390;SDS011;690;51.454;7.194;2023-02-27T04:33:01;5.78;;;4.53;;
1390;SDS011;690;51.454;7.194;2023-02-27T04:35:33;5.90;;;5.28;;
1390;SDS011;690;51.454;7.194;2023-02-27T04:38:08;6.75;;;3.70;;
1390;SDS011;690;51.454;7.194;2023-02-27T04:40:42;7.00;;;3.75;;
1390;SDS011;690;51.454;7.194;2023-02-27T04:43:14;4.40;;;3.30;;
1390;SDS011;690;51.454;7.194;2023-02-27T04:45:43;5.63;;;4.28;;
1390;SDS011;690;51.454;7.194;2023-02-27T04:48:15;7.18;;;3.85;;
1390;SDS011;690;51.454;7.194;2023-02-27T04:50:45;6.07;;;4.20;;
1390;SDS011;690;51.454;7.194;2023-02-27T04:53:18;9.10;;;4.80;;
1390;SDS011;690;51.454;7.194;2023-02-27T04:55:48;8.05;;;4.80;;
1390;SDS011;690;51.454;7.194;2023-02-27T04:58:20;5.43;;;4.20;;
1390;SDS011;690;51.454;7.194;2023-02-27T05:00:53;4.60;;;3.50;;
1390;SDS011;690;51.454;7.194;2023-02-27T05:03:23;5.05;;;4.03;;
1390;SDS011;690;51.454;7.194;2023-02-27T05:05:53;6.25;;;4.32;;
1390;SDS011;690;51.454;7.194;2023-02-27T05:08:25;4.55;;;3.83;;
1390;SDS011;690;51.454;7.194;2023-02-27T05:10:57;7.82;;;4.35;;
1390;SDS011;690;51.454;7.194;2023-02-27T05:13:30;5.18;;;3.45;;
1390;SDS011;690;51.454;7.194;2023-02-27T05:16:02;7.03;;;4.13;;
1390;SDS011;690;51.454;7.194;2023-02-27T05:18:34;5.70;;;4.35;;
1390;SDS011;690;51.454;7.194;2023-02-27T05:21:04;4.55;;;3.65;;
1390;SDS011;690;51.454;7.194;2023-02-27T05:23:41;4.93;;;4.00;;
1390;SDS011;690;51.454;7.194;2023-02-27T05:26:19;7.88;;;4.80;;
1390;SDS011;690;51.454;7.194;2023-02-27T05:28:57;6.30;;;4.50;;
1390;SDS011;690;51.454;7.194;2023-02-27T05:31:32;7.90;;;4.55;;
1390;SDS011;690;51.454;7.194;2023-02-27T05:34:07;4.40;;;4.00;;
1390;SDS011;690;51.454;7.194;2023-02-27T05:36:38;11.05;;;4.57;;
1390;SDS011;690;51.454;7.194;2023-02-27T05:39:11;6.93;;;4.97;;
1390;SDS011;690;51.454;7.194;2023-02-27T05:41:41;6.18;;;4.72;;
1390;SDS011;690;51.454;7.194;2023-02-27T05:44:15;9.63;;;4.68;;
1390;SDS011;690;51.454;7.194;2023-02-27T05:46:47;5.43;;;4.80;;
1390;SDS011;690;51.454;7.194;2023-02-27T05:49:19;10.68;;;6.15;;
1390;SDS011;690;51.454;7.194;2023-02-27T05:51:51;9.35;;;5.65;;
1390;SDS011;690;51.454;7.194;2023-02-27T05:54:21;5.95;;;4.22;;
1390;SDS011;690;51.454;7.194;2023-02-27T05:56:54;7.50;;;4.68;;
1390;SDS011;690;51.454;7.194;2023-02-27T05:59:26;7.57;;;4.65;;
1390;SDS011;690;51.454;7.194;2023-02-27T06:01:56;7.88;;;4.85;;
1390;SDS011;690;51.454;7.194;2023-02-27T06:04:23;7.32;;;4.60;;
1390;SDS011;690;51.454;7.194;2023-02-27T06:06:50;6.63;;;5.03;;
1390;SDS011;690;51.454;7.194;2023-02-27T06:09:17;6.78;;;4.70;;
1390;SDS011;690;51.454;7.194;2023-02-27T06:11:44;8.18;;;5.10;;
1390;SDS011;690;51.454;7.194;2023-02-27T06:14:12;10.00;;;4.75;;
1390;SDS011;690;51.454;7.194;2023-02-27T06:16:40;4.85;;;4.20;;
1390;SDS011;690;51.454;7.194;2023-02-27T06:19:07;5.20;;;4.30;;
1390;SDS011;690;51.454;7.194;2023-02-27T06:21:33;10.52;;;5.70;;
1390;SDS011;690;51.454;7.194;2023-02-27T06:24:00;6.13;;;4.80;;
1390;SDS011;690;51.454;7.194;2023-02-27T06:26:27;9.35;;;5.50;;
1390;SDS011;690;51.454;7.194;2023-02-27T06:28:54;8.73;;;6.10;;
1390;SDS011;690;51.454;7.194;2023-02-27T06:31:21;8.55;;;6.40;;
1390;SDS011;690;51.454;7.194;2023-02-27T06:33:49;15.32;;;7.43;;
1390;SDS011;690;51.454;7.194;2023-02-27T06:36:16;10.50;;;7.53;;
1390;SDS011;690;51.454;7.194;2023-02-27T06:38:43;8.43;;;5.90;;
1390;SDS011;690;51.454;7.194;2023-02-27T06:41:09;8.38;;;5.75;;
1390;SDS011;690;51.454;7.194;2023-02-27T06:43:36;7.20;;;6.22;;
1390;SDS011;690;51.454;7.194;2023-02-27T06:46:03;7.45;;;5.82;;
1390;SDS011;690;51.454;7.194;2023-02-27T06:48:30;6.25;;;4.80;;
1390;SDS011;690;51.454;7.194;2023-02-27T06:50:59;8.98;;;5.50;;
1390;SDS011;690;51.454;7.194;2023-02-27T06:53:25;10.70;;;6.20;;
1390;SDS011;690;51.454;7.194;2023-02-27T06:55:52;8.05;;;6.13;;
1390;SDS011;690;51.454;7.194;2023-02-27T06:58:19;7.50;;;6.03;;
1390;SDS011;690;51.454;7.194;2023-02-27T07:00:48;8.57;;;5.28;;
1390;SDS011;690;51.454;7.194;2023-02-27T07:03:15;8.43;;;7.10;;
1390;SDS011;690;51.454;7.194;2023-02-27T07:05:42;10.88;;;6.57;;
1390;SDS011;690;51.454;7.194;2023-02-27T07:08:11;8.60;;;5.90;;
1390;SDS011;690;51.454;7.194;2023-02-27T07:10:41;7.13;;;6.05;;
1390;SDS011;690;51.454;7.194;2023-02-27T07:13:11;8.80;;;5.93;;
1390;SDS011;690;51.454;7.194;2023-02-27T07:15:38;9.23;;;5.97;;
1390;SDS011;690;51.454;7.194;2023-02-27T07:18:05;12.75;;;6.88;;
1390;SDS011;690;51.454;7.194;2023-02-27T07:20:32;11.70;;;6.97;;
1390;SDS011;690;51.454;7.194;2023-02-27T07:22:59;13.75;;;7.00;;
1390;SDS011;690;51.454;7.194;2023-02-27T07:25:27;9.93;;;6.55;;
1390;SDS011;690;51.454;7.194;2023-02-27T07:27:54;8.48;;;6.65;;
1390;SDS011;690;51.454;7.194;2023-02-27T07:30:21;8.32;;;6.63;;
1390;SDS011;690;51.454;7.194;2023-02-27T07:32:48;8.63;;;7.75;;
1390;SDS011;690;51.454;7.194;2023-02-27T07:35:15;12.45;;;7.90;;
1390;SDS011;690;51.454;7.194;2023-02-27T07:37:42;9.75;;;7.22;;
1390;SDS011;690;51.454;7.194;2023-02-27T07:40:09;9.07;;;6.93;;
1390;SDS011;690;51.454;7.194;2023-02-27T07:42:38;11.20;;;8.15;;
1390;SDS011;690;51.454;7.194;2023-02-27T07:45:06;16.13;;;7.70;;
1390;SDS011;690;51.454;7.194;2023-02-27T07:47:33;12.85;;;8.77;;
1390;SDS011;690;51.454;7.194;2023-02-27T07:50:00;19.30;;;10.82;;
1390;SDS011;690;51.454;7.194;2023-02-27T07:52:28;18.30;;;10.13;;
1390;SDS011;690;51.454;7.194;2023-02-27T07:54:55;19.23;;;9.65;;
1390;SDS011;690;51.454;7.194;2023-02-27T07:57:22;11.27;;;7.43;;
1390;SDS011;690;51.454;7.194;2023-02-27T07:59:50;9.43;;;6.60;;
1390;SDS011;690;51.454;7.194;2023-02-27T08:02:17;12.63;;;6.70;;
1390;SDS011;690;51.454;7.194;2023-02-27T08:04:44;8.77;;;7.25;;
1390;SDS011;690;51.454;7.194;2023-02-27T08:07:11;10.13;;;6.50;;
1390;SDS011;690;51.454;7.194;2023-02-27T08:09:38;10.82;;;7.65;;
1390;SDS011;690;51.454;7.194;2023-02-27T08:12:04;10.38;;;6.32;;
1390;SDS011;690;51.454;7.194;2023-02-27T08:14:31;14.07;;;7.30;;
1390;SDS011;690;51.454;7.194;2023-02-27T08:16:59;12.25;;;6.13;;
1390;SDS011;690;51.454;7.194;2023-02-27T08:19:26;10.82;;;6.13;;
1390;SDS011;690;51.454;7.194;2023-02-27T08:21:53;9.95;;;6.78;;
1390;SDS011;690;51.454;7.194;2023-02-27T08:24:20;10.15;;;6.80;;
1390;SDS011;690;51.454;7.194;2023-02-27T08:26:47;12.98;;;7.25;;
1390;SDS011;690;51.454;7.194;2023-02-27T08:29:14;10.93;;;6.45;;
1390;SDS011;690;51.454;7.194;2023-02-27T08:31:41;8.60;;;5.65;;
1390;SDS011;690;51.454;7.194;2023-02-27T08:34:09;8.70;;;5.70;;
1390;SDS011;690;51.454;7.194;2023-02-27T08:36:36;9.93;;;6.22;;
1390;SDS011;690;51.454;7.194;2023-02-27T08:39:04;8.52;;;5.80;;
1390;SDS011;690;51.454;7.194;2023-02-27T08:41:31;12.57;;;6.25;;
1390;SDS011;690;51.454;7.194;2023-02-27T08:43:58;14.65;;;6.25;;
1390;SDS011;690;51.454;7.194;2023-02-27T08:46:25;11.27;;;5.75;;
1390;SDS011;690;51.454;7.194;2023-02-27T08:48:51;8.70;;;5.68;;
1390;SDS011;690;51.454;7.194;2023-02-27T08:51:20;10.30;;;5.20;;
1390;SDS011;690;51.454;7.194;2023-02-27T08:53:47;11.38;;;6.40;;
1390;SDS011;690;51.454;7.194;2023-02-27T08:56:13;6.72;;;5.10;;
1390;SDS011;690;51.454;7.194;2023-02-27T08:58:40;5.80;;;4.50;;
1390;SDS011;690;51.454;7.194;2023-02-27T09:01:07;8.90;;;4.85;;
1390;SDS011;690;51.454;7.194;2023-02-27T09:03:34;5.82;;;4.70;;
1390;SDS011;690;51.454;7.194;2023-02-27T09:06:01;6.72;;;4.95;;
1390;SDS011;690;51.454;7.194;2023-02-27T09:08:30;6.43;;;5.18;;
1390;SDS011;690;51.454;7.194;2023-02-27T09:10:57;10.23;;;5.85;;
1390;SDS011;690;51.454;7.194;2023-02-27T09:13:24;15.55;;;5.50;;
1390;SDS011;690;51.454;7.194;2023-02-27T09:15:52;13.50;;;5.78;;
1390;SDS011;690;51.454;7.194;2023-02-27T09:18:19;10.38;;;5.60;;
1390;SDS011;690;51.454;7.194;2023-02-27T09:20:47;8.02;;;5.32;;
1390;SDS011;690;51.454;7.194;2023-02-27T09:23:15;10.25;;;5.10;;
1390;SDS011;690;51.454;7.194;2023-02-27T09:25:43;8.38;;;5.28;;
1390;SDS011;690;51.454;7.194;2023-02-27T09:28:11;5.93;;;4.90;;
1390;SDS011;690;51.454;7.194;2023-02-27T09:30:38;9.32;;;5.30;;
1390;SDS011;690;51.454;7.194;2023-02-27T09:33:05;10.18;;;5.47;;
1390;SDS011;690;51.454;7.194;2023-02-27T09:35:32;10.68;;;4.47;;
1390;SDS011;690;51.454;7.194;2023-02-27T09:37:59;5.82;;;4.32;;
1390;SDS011;690;51.454;7.194;2023-02-27T09:40:26;9.63;;;4.90;;
1390;SDS011;690;51.454;7.194;2023-02-27T09:42:56;10.23;;;5.28;;
1390;SDS011;690;51.454;7.194;2023-02-27T09:45:27;9.93;;;4.70;;
1390;SDS011;690;51.454;7.194;2023-02-27T09:47:57;5.70;;;3.65;;
1390;SDS011;690;51.454;7.194;2023-02-27T09:50:34;14.18;;;4.40;;
1390;SDS011;690;51.454;7.194;2023-02-27T09:53:05;9.63;;;4.95;;
1390;SDS011;690;51.454;7.194;2023-02-27T09:55:37;9.32;;;4.00;;
1390;SDS011;690;51.454;7.194;2023-02-27T09:58:13;8.23;;;4.97;;
1390;SDS011;690;51.454;7.194;2023-02-27T10:00:52;8.98;;;4.18;;
1390;SDS011;690;51.454;7.194;2023-02-27T10:03:28;7.45;;;4.72;;
1390;SDS011;690;51.454;7.194;2023-02-27T10:06:15;5.45;;;3.90;;
1390;SDS011;690;51.454;7.194;2023-02-27T10:08:50;6.60;;;3.83;;
1390;SDS011;690;51.454;7.194;2023-02-27T10:11:33;7.90;;;4.38;;
1390;SDS011;690;51.454;7.194;2023-02-27T10:14:13;9.30;;;4.22;;
1390;SDS011;690;51.454;7.194;2023-02-27T10:16:43;10.13;;;5.70;;
1390;SDS011;690;51.454;7.194;2023-02-27T10:19:14;10.23;;;3.95;;
1390;SDS011;690;51.454;7.194;2023-02-27T10:21:45;7.28;;;3.58;;
1390;SDS011;690;51.454;7.194;2023-02-27T10:24:16;5.20;;;3.17;;
1390;SDS011;690;51.454;7.194;2023-02-27T10:26:51;5.40;;;2.88;;
1390;SDS011;690;51.454;7.194;2023-02-27T10:29:23;3.58;;;2.30;;
1390;SDS011;690;51.454;7.194;2023-02-27T10:31:55;6.03;;;2.95;;
1390;SDS011;690;51.454;7.194;2023-02-27T10:34:27;3.70;;;2.33;;
1390;SDS011;690;51.454;7.194;2023-02-27T10:36:56;4.28;;;2.63;;
1390;SDS011;690;51.454;7.194;2023-02-27T10:39:26;4.65;;;2.45;;
1390;SDS011;690;51.454;7.194;2023-02-27T10:41:53;4.18;;;2.72;;
1390;SDS011;690;51.454;7.194;2023-02-27T10:44:29;2.85;;;1.85;;
1390;SDS011;690;51.454;7.194;2023-02-27T10:46:57;4.82;;;2.63;;
1390;SDS011;690;51.454;7.194;2023-02-27T10:49:24;7.78;;;2.50;;
1390;SDS011;690;51.454;7.194;2023-02-27T10:54:39;2.65;;;2.13;;
1390;SDS011;690;51.454;7.194;2023-02-27T10:57:17;3.65;;;2.40;;
1390;SDS011;690;51.454;7.194;2023-02-27T10:59:54;4.35;;;1.90;;
1390;SDS011;690;51.454;7.194;2023-02-27T11:02:24;4.95;;;2.20;;
1390;SDS011;690;51.454;7.194;2023-02-27T11:04:54;3.65;;;2.30;;
1390;SDS011;690;51.454;7.194;2023-02-27T11:07:25;3.65;;;2.05;;
1390;SDS011;690;51.454;7.194;2023-02-27T11:10:02;4.03;;;2.57;;
1390;SDS011;690;51.454;7.194;2023-02-27T11:12:41;4.17;;;2.40;;
1390;SDS011;690;51.454;7.194;2023-02-27T11:15:23;5.37;;;2.37;;
1390;SDS011;690;51.454;7.194;2023-02-27T11:17:52;5.47;;;2.50;;
1390;SDS011;690;51.454;7.194;2023-02-27T11:23:11;3.17;;;2.30;;
1390;SDS011;690;51.454;7.194;2023-02-27T11:25:40;5.13;;;2.40;;
1390;SDS011;690;51.454;7.194;2023-02-27T11:28:11;4.43;;;2.90;;
1390;SDS011;690;51.454;7.194;2023-02-27T11:30:42;5.53;;;2.57;;
1390;SDS011;690;51.454;7.194;2023-02-27T11:33:14;3.67;;;2.20;;
1390;SDS011;690;51.454;7.194;2023-02-27T11:35:48;3.90;;;2.70;;
1390;SDS011;690;51.454;7.194;2023-02-27T11:38:17;3.60;;;2.50;;
1390;SDS011;690;51.454;7.194;2023-02-27T11:40:48;4.97;;;2.00;;
1390;SDS011;690;51.454;7.194;2023-02-27T11:43:18;4.20;;;2.50;;
1390;SDS011;690;51.454;7.194;2023-02-27T11:45:52;6.20;;;3.20;;
1390;SDS011;690;51.454;7.194;2023-02-27T11:48:24;3.80;;;2.43;;
1390;SDS011;690;51.454;7.194;2023-02-27T11:50:57;5.20;;;3.10;;
1390;SDS011;690;51.454;7.194;2023-02-27T11:53:47;4.40;;;3.33;;
1390;SDS011;690;51.454;7.194;2023-02-27T11:56:36;3.53;;;2.23;;
1390;SDS011;690;51.454;7.194;2023-02-27T11:59:12;6.73;;;2.47;;
1390;SDS011;690;51.454;7.194;2023-02-27T12:01:49;7.30;;;2.20;;
1390;SDS011;690;51.454;7.194;2023-02-27T12:04:20;4.43;;;2.83;;
1390;SDS011;690;51.454;7.194;2023-02-27T12:06:53;6.77;;;2.33;;
1390;SDS011;690;51.454;7.194;2023-02-27T12:09:33;5.80;;;2.30;;
1390;SDS011;690;51.454;7.194;2023-02-27T12:12:06;3.77;;;2.10;;
1390;SDS011;690;51.454;7.194;2023-02-27T12:14:40;6.10;;;2.33;;
1390;SDS011;690;51.454;7.194;2023-02-27T12:17:14;3.93;;;2.33;;
1390;SDS011;690;51.454;7.194;2023-02-27T12:19:55;7.00;;;2.07;;
1390;SDS011;690;51.454;7.194;2023-02-27T12:22:30;3.17;;;2.30;;
1390;SDS011;690;51.454;7.194;2023-02-27T12:25:03;2.63;;;2.37;;
1390;SDS011;690;51.454;7.194;2023-02-27T12:27:35;4.90;;;2.63;;
1390;SDS011;690;51.454;7.194;2023-02-27T12:30:12;5.10;;;3.40;;
1390;SDS011;690;51.454;7.194;2023-02-27T12:32:44;3.87;;;3.47;;
1390;SDS011;690;51.454;7.194;2023-02-27T12:35:17;4.60;;;3.20;;
1390;SDS011;690;51.454;7.194;2023-02-27T12:37:47;6.73;;;2.67;;
1390;SDS011;690;51.454;7.194;2023-02-27T12:40:15;4.13;;;2.70;;
1390;SDS011;690;51.454;7.194;2023-02-27T12:42:50;3.60;;;3.23;;
1390;SDS011;690;51.454;7.194;2023-02-27T12:45:34;4.63;;;2.43;;
1390;SDS011;690;51.454;7.194;2023-02-27T12:48:20;5.37;;;3.00;;
1390;SDS011;690;51.454;7.194;2023-02-27T12:50:58;4.37;;;2.90;;
1390;SDS011;690;51.454;7.194;2023-02-27T12:53:36;3.40;;;2.40;;
1390;SDS011;690;51.454;7.194;2023-02-27T12:56:16;5.03;;;2.70;;
1390;SDS011;690;51.454;7.194;2023-02-27T12:58:47;10.23;;;3.23;;
1390;SDS011;690;51.454;7.194;2023-02-27T13:01:27;8.40;;;3.50;;
1390;SDS011;690;51.454;7.194;2023-02-27T13:04:04;7.03;;;3.27;;
1390;SDS011;690;51.454;7.194;2023-02-27T13:06:38;4.07;;;2.70;;
1390;SDS011;690;51.454;7.194;2023-02-27T13:09:19;4.90;;;2.33;;
1390;SDS011;690;51.454;7.194;2023-02-27T13:11:54;3.47;;;2.70;;
1390;SDS011;690;51.454;7.194;2023-02-27T13:14:28;4.43;;;2.90;;
1390;SDS011;690;51.454;7.194;2023-02-27T13:17:07;3.87;;;3.27;;
1390;SDS011;690;51.454;7.194;2023-02-27T13:19:41;4.00;;;3.50;;
1390;SDS011;690;51.454;7.194;2023-02-27T13:22:13;6.53;;;3.80;;
1390;SDS011;690;51.454;7.194;2023-02-27T13:24:46;5.47;;;3.20;;
1390;SDS011;690;51.454;7.194;2023-02-27T13:27:18;5.83;;;3.20;;
1390;SDS011;690;51.454;7.194;2023-02-27T13:29:51;4.63;;;3.07;;
1390;SDS011;690;51.454;7.194;2023-02-27T13:32:32;2.73;;;2.53;;
1390;SDS011;690;51.454;7.194;2023-02-27T13:35:12;5.80;;;2.80;;
1390;SDS011;690;51.454;7.194;2023-02-27T13:37:47;4.23;;;2.60;;
1390;SDS011;690;51.454;7.194;2023-02-27T13:40:26;3.77;;;2.20;;
1390;SDS011;690;51.454;7.194;2023-02-27T13:42:57;3.03;;;2.40;;
1390;SDS011;690;51.454;7.194;2023-02-27T13:54:17;3.27;;;2.50;;
1390;SDS011;690;51.454;7.194;2023-02-27T13:56:46;3.40;;;2.47;;
1390;SDS011;690;51.454;7.194;2023-02-27T13:59:19;3.00;;;2.27;;
1390;SDS011;690;51.454;7.194;2023-02-27T14:01:51;3.40;;;2.47;;
1390;SDS011;690;51.454;7.194;2023-02-27T14:04:21;3.90;;;2.70;;
1390;SDS011;690;51.454;7.194;2023-02-27T14:06:55;3.10;;;2.30;;
1390;SDS011;690;51.454;7.194;2023-02-27T14:09:24;3.90;;;2.57;;
1390;SDS011;690;51.454;7.194;2023-02-27T14:11:56;7.20;;;2.57;;
1390;SDS011;690;51.454;7.194;2023-02-27T14:14:40;5.17;;;2.30;;
1390;SDS011;690;51.454;7.194;2023-02-27T14:17:10;3.80;;;2.97;;
1390;SDS011;690;51.454;7.194;2023-02-27T14:19:49;2.97;;;2.23;;
1390;SDS011;690;51.454;7.194;2023-02-27T14:25:15;4.50;;;2.07;;
1390;SDS011;690;51.454;7.194;2023-02-27T14:27:47;2.37;;;2.17;;
1390;SDS011;690;51.454;7.194;2023-02-27T14:33:02;2.40;;;2.20;;
1390;SDS011;690;51.454;7.194;2023-02-27T14:35:36;3.20;;;2.27;;
1390;SDS011;690;51.454;7.194;2023-02-27T14:38:08;4.93;;;2.83;;
1390;SDS011;690;51.454;7.194;2023-02-27T14:40:38;5.43;;;2.20;;
1390;SDS011;690;51.454;7.194;2023-02-27T14:43:11;7.47;;;2.60;;
1390;SDS011;690;51.454;7.194;2023-02-27T14:45:44;3.30;;;2.30;;
1390;SDS011;690;51.454;7.194;2023-02-27T14:48:25;3.33;;;2.63;;
1390;SDS011;690;51.454;7.194;2023-02-27T14:50:53;6.97;;;2.53;;
1390;SDS011;690;51.454;7.194;2023-02-27T14:53:24;2.77;;;2.30;;
1390;SDS011;690;51.454;7.194;2023-02-27T14:55:52;3.97;;;2.23;;
1390;SDS011;690;51.454;7.194;2023-02-27T14:58:20;4.80;;;2.63;;
1390;SDS011;690;51.454;7.194;2023-02-27T15:00:48;5.53;;;3.90;;
1390;SDS011;690;51.454;7.194;2023-02-27T15:03:27;5.13;;;4.10;;
1390;SDS011;690;51.454;7.194;2023-02-27T15:05:59;3.10;;;2.80;;
1390;SDS011;690;51.454;7.194;2023-02-27T15:08:30;7.10;;;2.90;;
1390;SDS011;690;51.454;7.194;2023-02-27T15:10:59;5.33;;;3.70;;
1390;SDS011;690;51.454;7.194;2023-02-27T15:13:28;5.80;;;3.10;;
1390;SDS011;690;51.454;7.194;2023-02-27T15:18:58;4.77;;;3.20;;
1390;SDS011;690;51.454;7.194;2023-02-27T15:21:28;4.53;;;2.63;;
1390;SDS011;690;51.454;7.194;2023-02-27T15:24:00;2.40;;;2.20;;
1390;SDS011;690;51.454;7.194;2023-02-27T15:26:28;4.00;;;3.03;;
1390;SDS011;690;51.454;7.194;2023-02-27T15:29:01;4.97;;;2.03;;
1390;SDS011;690;51.454;7.194;2023-02-27T15:31:30;2.53;;;2.00;;
1390;SDS011;690;51.454;7.194;2023-02-27T15:33:57;4.27;;;2.40;;
1390;SDS011;690;51.454;7.194;2023-02-27T15:36:27;3.73;;;2.87;;
1390;SDS011;690;51.454;7.194;2023-02-27T15:39:12;4.80;;;2.20;;
1390;SDS011;690;51.454;7.194;2023-02-27T15:41:41;2.20;;;2.00;;
1390;SDS011;690;51.454;7.194;2023-02-27T15:44:11;2.80;;;2.10;;
1390;SDS011;690;51.454;7.194;2023-02-27T15:46:39;3.17;;;2.10;;
1390;SDS011;690;51.454;7.194;2023-02-27T15:49:06;2.50;;;2.10;;
1390;SDS011;690;51.454;7.194;2023-02-27T15:51:38;6.93;;;2.40;;
1390;SDS011;690;51.454;7.194;2023-02-27T15:54:05;4.10;;;2.80;;
1390;SDS011;690;51.454;7.194;2023-02-27T15:56:38;4.10;;;2.70;;
1390;SDS011;690;51.454;7.194;2023-02-27T15:59:06;3.20;;;2.23;;
1390;SDS011;690;51.454;7.194;2023-02-27T16:01:40;4.27;;;2.37;;
1390;SDS011;690;51.454;7.194;2023-02-27T16:04:13;4.00;;;2.00;;
1390;SDS011;690;51.454;7.194;2023-02-27T16:06:46;2.80;;;2.07;;
1390;SDS011;690;51.454;7.194;2023-02-27T16:09:19;3.40;;;2.20;;
1390;SDS011;690;51.454;7.194;2023-02-27T16:11:52;3.83;;;1.70;;
1390;SDS011;690;51.454;7.194;2023-02-27T16:14:37;7.40;;;1.87;;
1390;SDS011;690;51.454;7.194;2023-02-27T16:17:19;1.93;;;1.53;;
1390;SDS011;690;51.454;7.194;2023-02-27T16:19:51;3.13;;;1.83;;
1390;SDS011;690;51.454;7.194;2023-02-27T16:22:20;3.77;;;1.83;;
1390;SDS011;690;51.454;7.194;2023-02-27T16:24:49;5.60;;;1.80;;
1390;SDS011;690;51.454;7.194;2023-02-27T16:27:18;1.67;;;1.57;;
1390;SDS011;690;51.454;7.194;2023-02-27T16:29:48;3.60;;;2.20;;
1390;SDS011;690;51.454;7.194;2023-02-27T16:32:19;2.10;;;1.63;;